EWG1157 OEJN-EDDK
Flight info
| Callsign | EWG1157 |
|---|---|
| Flight time | N/A |
| Altitude | 36000 |
| Route | BOMOX M686 OTEMO DCT KUNKI DCT MMA/N0458F360 DCT METRU DCT TUMBO DCT PETAK DCT GLOMY DCT NEMEK/N0459F380 DCT ABISO DCT NANIT DCT ERKIR DCT VEKIR DCT UMDAS T844 ASKIK/N0429F240 T840 GULKO GULKO1K |
| Aircraft | A320/M-SDE3FGHIRWY/LB1 |
Departure
| Time | N/A |
|---|---|
| Airport | King Abdulaziz International Airport (OEJN) |
Arrival
| Time | 2026-04-22 21:18 |
|---|---|
| Airport | Cologne Bonn Airport (EDDK) |
| Time | Latitude | Longitude | Altitude | Speed | Heading |
|---|---|---|---|---|---|
| 2026-04-22 20:09 | 46.13267 | 14.53309 | 36243 ft | 435 kts | 317° |
| 2026-04-22 20:09 | 46.15432 | 14.50296 | 36245 ft | 436 kts | 317° |
| 2026-04-22 20:10 | 46.19780 | 14.44241 | 36225 ft | 436 kts | 317° |
| 2026-04-22 20:10 | 46.24130 | 14.38155 | 36232 ft | 436 kts | 317° |
| 2026-04-22 20:11 | 46.28263 | 14.31746 | 36240 ft | 437 kts | 312° |
| 2026-04-22 20:11 | 46.32194 | 14.25014 | 36233 ft | 438 kts | 312° |
| 2026-04-22 20:12 | 46.36281 | 14.18549 | 36228 ft | 438 kts | 316° |
| 2026-04-22 20:12 | 46.39895 | 14.13338 | 36217 ft | 438 kts | 317° |
| 2026-04-22 20:13 | 46.44920 | 14.06124 | 36233 ft | 438 kts | 317° |
| 2026-04-22 20:13 | 46.49189 | 13.99828 | 36235 ft | 438 kts | 316° |
| 2026-04-22 20:14 | 46.53437 | 13.93489 | 36245 ft | 438 kts | 316° |
| 2026-04-22 20:14 | 46.57686 | 13.87132 | 36229 ft | 439 kts | 316° |
| 2026-04-22 20:15 | 46.61915 | 13.80813 | 36233 ft | 439 kts | 316° |
| 2026-04-22 20:15 | 46.66167 | 13.74444 | 36239 ft | 439 kts | 316° |
| 2026-04-22 20:16 | 46.70416 | 13.68059 | 36244 ft | 439 kts | 316° |
| 2026-04-22 20:16 | 46.74662 | 13.61663 | 36260 ft | 439 kts | 316° |
| 2026-04-22 20:17 | 46.78882 | 13.55301 | 36260 ft | 440 kts | 316° |
| 2026-04-22 20:17 | 46.83140 | 13.48869 | 36238 ft | 441 kts | 316° |
| 2026-04-22 20:18 | 46.87402 | 13.42402 | 36258 ft | 442 kts | 316° |
| 2026-04-22 20:18 | 46.91662 | 13.35913 | 36262 ft | 442 kts | 316° |
| 2026-04-22 20:19 | 46.95897 | 13.29459 | 36272 ft | 442 kts | 316° |
| 2026-04-22 20:19 | 47.00160 | 13.22949 | 36273 ft | 443 kts | 316° |
| 2026-04-22 20:20 | 47.04421 | 13.16440 | 36283 ft | 442 kts | 316° |
| 2026-04-22 20:20 | 47.08676 | 13.09905 | 36276 ft | 443 kts | 316° |
| 2026-04-22 20:21 | 47.12923 | 13.03355 | 36286 ft | 443 kts | 316° |
| 2026-04-22 20:21 | 47.17150 | 12.96826 | 36291 ft | 444 kts | 316° |
| 2026-04-22 20:22 | 47.21404 | 12.90247 | 36294 ft | 444 kts | 316° |
| 2026-04-22 20:22 | 47.25658 | 12.83652 | 36305 ft | 444 kts | 316° |
| 2026-04-22 20:23 | 47.29905 | 12.77057 | 36312 ft | 443 kts | 316° |
| 2026-04-22 20:23 | 47.34150 | 12.70455 | 36302 ft | 444 kts | 316° |
| 2026-04-22 20:24 | 47.38397 | 12.63826 | 36305 ft | 445 kts | 316° |
| 2026-04-22 20:24 | 47.42643 | 12.57168 | 36305 ft | 445 kts | 316° |
| 2026-04-22 20:25 | 47.46887 | 12.50497 | 36299 ft | 445 kts | 316° |
| 2026-04-22 20:25 | 47.51125 | 12.43830 | 36305 ft | 445 kts | 316° |
| 2026-04-22 20:26 | 47.55333 | 12.37189 | 36306 ft | 445 kts | 316° |
| 2026-04-22 20:26 | 47.59571 | 12.30488 | 36294 ft | 446 kts | 316° |
| 2026-04-22 20:27 | 47.63811 | 12.23739 | 36293 ft | 448 kts | 313° |
| 2026-04-22 20:27 | 47.67525 | 12.16276 | 36295 ft | 451 kts | 308° |
| 2026-04-22 20:28 | 47.71186 | 12.08712 | 36297 ft | 451 kts | 308° |
| 2026-04-22 20:28 | 47.74815 | 12.01186 | 36299 ft | 451 kts | 308° |
| 2026-04-22 20:29 | 47.78463 | 11.93600 | 36300 ft | 451 kts | 308° |
| 2026-04-22 20:29 | 47.82106 | 11.85992 | 36296 ft | 451 kts | 308° |
| 2026-04-22 20:30 | 47.85752 | 11.78372 | 36290 ft | 452 kts | 308° |
| 2026-04-22 20:30 | 47.89395 | 11.70721 | 36290 ft | 453 kts | 308° |
| 2026-04-22 20:31 | 47.93012 | 11.63117 | 36295 ft | 453 kts | 308° |
| 2026-04-22 20:31 | 47.96653 | 11.55435 | 36298 ft | 454 kts | 308° |
| 2026-04-22 20:32 | 48.00293 | 11.47746 | 36288 ft | 453 kts | 308° |
| 2026-04-22 20:32 | 48.03926 | 11.40045 | 36301 ft | 453 kts | 308° |
| 2026-04-22 20:33 | 48.07544 | 11.32343 | 36308 ft | 453 kts | 308° |
| 2026-04-22 20:33 | 48.11164 | 11.24614 | 36304 ft | 454 kts | 308° |
| 2026-04-22 20:34 | 48.14787 | 11.16870 | 36302 ft | 454 kts | 308° |
| 2026-04-22 20:34 | 48.18383 | 11.09158 | 36293 ft | 455 kts | 308° |
| 2026-04-22 20:35 | 48.22002 | 11.01376 | 36303 ft | 455 kts | 308° |
| 2026-04-22 20:35 | 48.25621 | 10.93566 | 36324 ft | 456 kts | 308° |
| 2026-04-22 20:36 | 48.29231 | 10.85743 | 36321 ft | 456 kts | 308° |
| 2026-04-22 20:36 | 48.32839 | 10.77922 | 36301 ft | 455 kts | 308° |
| 2026-04-22 20:37 | 48.36441 | 10.70096 | 36316 ft | 455 kts | 308° |
| 2026-04-22 20:37 | 48.40030 | 10.62266 | 36319 ft | 454 kts | 307° |
| 2026-04-22 20:38 | 48.43610 | 10.54430 | 36317 ft | 454 kts | 307° |
| 2026-04-22 20:38 | 48.47152 | 10.46647 | 36319 ft | 453 kts | 307° |
| 2026-04-22 20:39 | 48.50710 | 10.38816 | 36313 ft | 453 kts | 307° |
| 2026-04-22 20:39 | 48.54262 | 10.30996 | 36317 ft | 451 kts | 307° |
| 2026-04-22 20:40 | 48.57817 | 10.23178 | 36317 ft | 451 kts | 307° |
| 2026-04-22 20:40 | 48.61348 | 10.15343 | 36316 ft | 451 kts | 307° |
| 2026-04-22 20:41 | 48.64869 | 10.07502 | 36300 ft | 451 kts | 307° |
| 2026-04-22 20:41 | 48.68366 | 9.99690 | 36280 ft | 452 kts | 307° |
| 2026-04-22 20:42 | 48.71896 | 9.91812 | 36283 ft | 451 kts | 310° |
| 2026-04-22 20:42 | 48.76091 | 9.84819 | 36283 ft | 448 kts | 317° |
| 2026-04-22 20:43 | 48.80413 | 9.78000 | 36291 ft | 448 kts | 316° |
| 2026-04-22 20:43 | 48.84691 | 9.71204 | 36293 ft | 448 kts | 316° |
| 2026-04-22 20:44 | 48.88999 | 9.64337 | 36288 ft | 449 kts | 316° |
| 2026-04-22 20:44 | 48.93306 | 9.57473 | 36292 ft | 449 kts | 316° |
| 2026-04-22 20:45 | 48.97614 | 9.50577 | 36293 ft | 450 kts | 316° |
| 2026-04-22 20:45 | 49.01917 | 9.43668 | 36295 ft | 450 kts | 316° |
| 2026-04-22 20:46 | 49.08350 | 9.33317 | 36295 ft | 450 kts | 316° |
| 2026-04-22 20:46 | 49.12655 | 9.26368 | 36288 ft | 450 kts | 316° |
| 2026-04-22 20:47 | 49.16223 | 9.20582 | 36303 ft | 450 kts | 316° |
| 2026-04-22 20:47 | 49.20514 | 9.13604 | 36302 ft | 451 kts | 316° |
| 2026-04-22 20:48 | 49.24817 | 9.06613 | 36300 ft | 451 kts | 316° |
| 2026-04-22 20:48 | 49.29117 | 8.99606 | 36305 ft | 452 kts | 316° |
| 2026-04-22 20:49 | 49.33414 | 8.92572 | 36315 ft | 452 kts | 316° |
| 2026-04-22 20:49 | 49.37816 | 8.85714 | 36319 ft | 449 kts | 324° |
| 2026-04-22 20:50 | 49.43148 | 8.80969 | 36320 ft | 442 kts | 342° |
| 2026-04-22 20:50 | 49.49027 | 8.78297 | 36320 ft | 441 kts | 346° |
| 2026-04-22 20:51 | 49.54934 | 8.75702 | 36321 ft | 442 kts | 346° |
| 2026-04-22 20:51 | 49.60803 | 8.73115 | 36321 ft | 442 kts | 346° |
| 2026-04-22 20:52 | 49.66726 | 8.70499 | 36324 ft | 443 kts | 346° |
| 2026-04-22 20:52 | 49.72655 | 8.67881 | 36318 ft | 443 kts | 346° |
| 2026-04-22 20:53 | 49.78594 | 8.65257 | 36326 ft | 444 kts | 346° |
| 2026-04-22 20:53 | 49.81555 | 8.63940 | 36130 ft | 442 kts | 346° |
| 2026-04-22 20:53 | 49.84473 | 8.62641 | 35410 ft | 442 kts | 346° |
| 2026-04-22 20:54 | 49.87430 | 8.61328 | 34665 ft | 443 kts | 347° |
| 2026-04-22 20:54 | 49.90398 | 8.60008 | 33784 ft | 446 kts | 347° |
| 2026-04-22 20:54 | 49.93386 | 8.58671 | 32933 ft | 446 kts | 347° |
| 2026-04-22 20:54 | 49.96364 | 8.57337 | 32256 ft | 443 kts | 347° |
| 2026-04-22 20:55 | 49.99316 | 8.56014 | 31513 ft | 442 kts | 347° |
| 2026-04-22 20:55 | 50.02270 | 8.54693 | 30817 ft | 440 kts | 347° |
| 2026-04-22 20:55 | 50.05181 | 8.53389 | 30369 ft | 432 kts | 347° |
| 2026-04-22 20:55 | 50.08053 | 8.52011 | 29736 ft | 428 kts | 345° |
| 2026-04-22 20:56 | 50.10851 | 8.50541 | 29123 ft | 424 kts | 344° |
| 2026-04-22 20:56 | 50.13620 | 8.49009 | 28461 ft | 421 kts | 344° |
| 2026-04-22 20:56 | 50.16360 | 8.47465 | 27859 ft | 417 kts | 344° |
| 2026-04-22 20:56 | 50.19071 | 8.45943 | 27279 ft | 412 kts | 344° |
| 2026-04-22 20:57 | 50.21726 | 8.44473 | 26741 ft | 408 kts | 344° |
| 2026-04-22 20:57 | 50.24391 | 8.43019 | 26166 ft | 404 kts | 345° |
| 2026-04-22 20:57 | 50.27040 | 8.41581 | 25620 ft | 400 kts | 343° |
| 2026-04-22 20:57 | 50.29577 | 8.39859 | 25086 ft | 399 kts | 336° |
| 2026-04-22 20:58 | 50.31958 | 8.37646 | 24560 ft | 397 kts | 331° |
| 2026-04-22 20:58 | 50.34281 | 8.35329 | 24047 ft | 394 kts | 331° |
| 2026-04-22 20:58 | 50.36587 | 8.33030 | 23353 ft | 393 kts | 331° |
| 2026-04-22 20:58 | 50.38889 | 8.30740 | 22627 ft | 393 kts | 331° |
| 2026-04-22 20:59 | 50.41190 | 8.28448 | 21962 ft | 392 kts | 330° |
| 2026-04-22 20:59 | 50.43484 | 8.26152 | 21377 ft | 389 kts | 330° |
| 2026-04-22 20:59 | 50.45756 | 8.23875 | 20825 ft | 386 kts | 330° |
| 2026-04-22 20:59 | 50.48005 | 8.21612 | 20298 ft | 382 kts | 330° |
| 2026-04-22 21:00 | 50.50237 | 8.19368 | 19782 ft | 379 kts | 330° |
| 2026-04-22 21:00 | 50.52423 | 8.17179 | 19289 ft | 376 kts | 330° |
| 2026-04-22 21:00 | 50.54615 | 8.14981 | 18803 ft | 373 kts | 330° |
| 2026-04-22 21:00 | 50.56788 | 8.12789 | 18280 ft | 370 kts | 330° |
| 2026-04-22 21:01 | 50.58945 | 8.10612 | 17759 ft | 366 kts | 330° |
| 2026-04-22 21:01 | 50.61078 | 8.08459 | 17219 ft | 364 kts | 330° |
| 2026-04-22 21:01 | 50.63199 | 8.06313 | 16717 ft | 361 kts | 330° |
| 2026-04-22 21:01 | 50.65301 | 8.04179 | 16233 ft | 358 kts | 330° |
| 2026-04-22 21:02 | 50.67384 | 8.02062 | 15757 ft | 355 kts | 330° |
| 2026-04-22 21:02 | 50.69453 | 7.99957 | 15288 ft | 352 kts | 329° |
| 2026-04-22 21:02 | 50.71498 | 7.97872 | 14832 ft | 349 kts | 329° |
| 2026-04-22 21:02 | 50.73469 | 7.95738 | 14366 ft | 348 kts | 324° |
| 2026-04-22 21:03 | 50.75273 | 7.93202 | 13896 ft | 347 kts | 317° |
| 2026-04-22 21:03 | 50.76832 | 7.90322 | 13576 ft | 341 kts | 309° |
| 2026-04-22 21:03 | 50.78131 | 7.87260 | 13440 ft | 330 kts | 306° |
| 2026-04-22 21:03 | 50.79350 | 7.84256 | 13302 ft | 319 kts | 306° |
| 2026-04-22 21:04 | 50.80531 | 7.81351 | 13171 ft | 308 kts | 306° |
| 2026-04-22 21:04 | 50.81675 | 7.78525 | 12938 ft | 302 kts | 306° |
| 2026-04-22 21:04 | 50.82793 | 7.75747 | 12598 ft | 300 kts | 306° |
| 2026-04-22 21:04 | 50.83910 | 7.72974 | 12264 ft | 298 kts | 305° |
| 2026-04-22 21:05 | 50.85021 | 7.70215 | 11905 ft | 297 kts | 305° |
| 2026-04-22 21:05 | 50.86129 | 7.67472 | 11554 ft | 295 kts | 306° |
| 2026-04-22 21:05 | 50.87234 | 7.64740 | 11199 ft | 294 kts | 306° |
| 2026-04-22 21:05 | 50.88332 | 7.62023 | 10834 ft | 293 kts | 305° |
| 2026-04-22 21:06 | 50.89427 | 7.59308 | 10491 ft | 291 kts | 305° |
| 2026-04-22 21:06 | 50.90497 | 7.56648 | 10140 ft | 290 kts | 305° |
| 2026-04-22 21:06 | 50.91578 | 7.53961 | 9749 ft | 289 kts | 305° |
| 2026-04-22 21:06 | 50.92656 | 7.51284 | 9352 ft | 288 kts | 305° |
| 2026-04-22 21:07 | 50.93728 | 7.48616 | 8947 ft | 286 kts | 305° |
| 2026-04-22 21:07 | 50.94793 | 7.45965 | 8573 ft | 284 kts | 304° |
| 2026-04-22 21:07 | 50.95848 | 7.43328 | 8191 ft | 282 kts | 304° |
| 2026-04-22 21:07 | 50.96897 | 7.40704 | 7792 ft | 281 kts | 304° |
| 2026-04-22 21:08 | 50.97939 | 7.38100 | 7404 ft | 279 kts | 304° |
| 2026-04-22 21:08 | 50.98964 | 7.35532 | 7020 ft | 278 kts | 304° |
| 2026-04-22 21:08 | 50.99992 | 7.32950 | 6616 ft | 276 kts | 304° |
| 2026-04-22 21:08 | 51.01014 | 7.30381 | 6206 ft | 274 kts | 304° |
| 2026-04-22 21:09 | 51.02023 | 7.27843 | 5945 ft | 267 kts | 304° |
| 2026-04-22 21:09 | 51.02993 | 7.25403 | 5806 ft | 255 kts | 304° |
| 2026-04-22 21:09 | 51.03931 | 7.23047 | 5519 ft | 250 kts | 304° |
| 2026-04-22 21:09 | 51.04856 | 7.20725 | 5187 ft | 248 kts | 304° |
| 2026-04-22 21:10 | 51.05770 | 7.18418 | 4996 ft | 246 kts | 304° |
| 2026-04-22 21:10 | 51.06684 | 7.16107 | 5013 ft | 248 kts | 303° |
| 2026-04-22 21:10 | 51.07411 | 7.13615 | 4841 ft | 250 kts | 289° |
| 2026-04-22 21:10 | 51.07738 | 7.10908 | 4578 ft | 250 kts | 274° |
| 2026-04-22 21:11 | 51.07690 | 7.08143 | 4317 ft | 250 kts | 266° |
| 2026-04-22 21:11 | 51.07580 | 7.05388 | 4084 ft | 249 kts | 266° |
| 2026-04-22 21:11 | 51.07478 | 7.02642 | 4001 ft | 249 kts | 266° |
| 2026-04-22 21:11 | 51.07380 | 6.99893 | 4008 ft | 249 kts | 266° |
| 2026-04-22 21:12 | 51.07284 | 6.97225 | 4006 ft | 237 kts | 266° |
| 2026-04-22 21:12 | 51.07293 | 6.94668 | 4001 ft | 230 kts | 275° |
| 2026-04-22 21:12 | 51.07098 | 6.92182 | 3908 ft | 225 kts | 246° |
| 2026-04-22 21:12 | 51.06318 | 6.90029 | 3954 ft | 227 kts | 224° |
| 2026-04-22 21:13 | 51.04952 | 6.88952 | 3693 ft | 219 kts | 181° |
| 2026-04-22 21:13 | 51.03555 | 6.89613 | 3443 ft | 211 kts | 139° |
| 2026-04-22 21:13 | 51.02544 | 6.91291 | 3188 ft | 210 kts | 128° |
| 2026-04-22 21:13 | 51.01589 | 6.93036 | 3034 ft | 209 kts | 132° |
| 2026-04-22 21:14 | 51.00582 | 6.94618 | 3000 ft | 197 kts | 135° |
| 2026-04-22 21:14 | 50.99605 | 6.96064 | 3005 ft | 188 kts | 135° |
| 2026-04-22 21:14 | 50.98655 | 6.97457 | 2997 ft | 183 kts | 135° |
| 2026-04-22 21:14 | 50.97730 | 6.98808 | 2827 ft | 179 kts | 135° |
| 2026-04-22 21:15 | 50.96818 | 7.00139 | 2598 ft | 177 kts | 135° |
| 2026-04-22 21:15 | 50.95935 | 7.01427 | 2372 ft | 172 kts | 135° |
| 2026-04-22 21:15 | 50.95087 | 7.02661 | 2171 ft | 155 kts | 134° |
| 2026-04-22 21:15 | 50.94336 | 7.03753 | 1946 ft | 139 kts | 134° |
| 2026-04-22 21:16 | 50.93648 | 7.04755 | 1756 ft | 131 kts | 134° |
| 2026-04-22 21:16 | 50.92985 | 7.05722 | 1584 ft | 129 kts | 134° |
| 2026-04-22 21:16 | 50.92322 | 7.06690 | 1423 ft | 131 kts | 134° |
| 2026-04-22 21:16 | 50.91650 | 7.07667 | 1258 ft | 132 kts | 134° |
| 2026-04-22 21:17 | 50.90967 | 7.08655 | 1072 ft | 134 kts | 136° |
| 2026-04-22 21:17 | 50.90279 | 7.09653 | 904 ft | 135 kts | 135° |
| 2026-04-22 21:17 | 50.89583 | 7.10671 | 722 ft | 137 kts | 134° |
| 2026-04-22 21:17 | 50.88884 | 7.11697 | 525 ft | 137 kts | 135° |
| 2026-04-22 21:18 | 50.88187 | 7.12702 | 333 ft | 137 kts | 135° |
| 2026-04-22 21:18 | 50.87517 | 7.13680 | 240 ft | 118 kts | 138° |
| 2026-04-22 21:18 | 50.87050 | 7.14350 | 253 ft | 56 kts | 139° |
| 2026-04-22 21:18 | 50.86914 | 7.14536 | 260 ft | 14 kts | 161° |
| 2026-04-22 21:19 | 50.86874 | 7.14445 | 260 ft | 11 kts | 278° |
| 2026-04-22 21:19 | 50.86889 | 7.14317 | 258 ft | 13 kts | 280° |
| 2026-04-22 21:19 | 50.86905 | 7.14170 | 255 ft | 14 kts | 279° |
| 2026-04-22 21:19 | 50.86920 | 7.14020 | 253 ft | 16 kts | 279° |
| 2026-04-22 21:20 | 50.86983 | 7.13836 | 244 ft | 23 kts | 319° |
| 2026-04-22 21:20 | 50.87113 | 7.13653 | 239 ft | 27 kts | 317° |
| 2026-04-22 21:20 | 50.87258 | 7.13437 | 234 ft | 28 kts | 316° |
| 2026-04-22 21:20 | 50.87409 | 7.13223 | 232 ft | 30 kts | 318° |
| 2026-04-22 21:21 | 50.87567 | 7.12992 | 232 ft | 32 kts | 317° |
| 2026-04-22 21:21 | 50.87727 | 7.12759 | 232 ft | 29 kts | 317° |
| 2026-04-22 21:21 | 50.87860 | 7.12611 | 233 ft | 19 kts | 352° |
| 2026-04-22 21:21 | 50.87983 | 7.12595 | 232 ft | 17 kts | 328° |
| 2026-04-22 21:22 | 50.88049 | 7.12439 | 232 ft | 17 kts | 300° |
| 2026-04-22 21:22 | 50.88114 | 7.12296 | 232 ft | 15 kts | 306° |
| 2026-04-22 21:22 | 50.88168 | 7.12172 | 232 ft | 8 kts | 305° |
| 2026-04-22 21:22 | 50.88212 | 7.12147 | 232 ft | 7 kts | 15° |
| 2026-04-22 21:23 | 50.88230 | 7.12177 | 232 ft | 3 kts | 58° |
| 2026-04-22 21:23 | 50.88245 | 7.12195 | 232 ft | 2 kts | 35° |
| 2026-04-22 21:23 | 50.88248 | 7.12199 | 232 ft | 0 kts | 36° |